sensor_id;sensor_type;location;lat;lon;timestamp;P1;durP1;ratioP1;P2;durP2;ratioP2
63801;SDS011;49949;43.060;25.624;2023-06-04T00:01:08;8.20;;;5.40;;
63801;SDS011;49949;43.060;25.624;2023-06-04T00:03:34;7.72;;;5.20;;
63801;SDS011;49949;43.060;25.624;2023-06-04T00:06:00;6.55;;;5.68;;
63801;SDS011;49949;43.060;25.624;2023-06-04T00:08:25;8.30;;;5.10;;
63801;SDS011;49949;43.060;25.624;2023-06-04T00:10:51;10.32;;;5.65;;
63801;SDS011;49949;43.060;25.624;2023-06-04T00:13:17;7.22;;;5.75;;
63801;SDS011;49949;43.060;25.624;2023-06-04T00:15:42;8.88;;;5.35;;
63801;SDS011;49949;43.060;25.624;2023-06-04T00:18:08;11.95;;;5.40;;
63801;SDS011;49949;43.060;25.624;2023-06-04T00:20:36;6.38;;;5.30;;
63801;SDS011;49949;43.060;25.624;2023-06-04T00:23:02;7.70;;;5.00;;
63801;SDS011;49949;43.060;25.624;2023-06-04T00:25:28;7.80;;;4.63;;
63801;SDS011;49949;43.060;25.624;2023-06-04T00:27:54;13.27;;;5.55;;
63801;SDS011;49949;43.060;25.624;2023-06-04T00:30:20;6.72;;;5.45;;
63801;SDS011;49949;43.060;25.624;2023-06-04T00:32:45;8.23;;;5.15;;
63801;SDS011;49949;43.060;25.624;2023-06-04T00:35:12;7.57;;;5.30;;
63801;SDS011;49949;43.060;25.624;2023-06-04T00:37:38;8.77;;;5.25;;
63801;SDS011;49949;43.060;25.624;2023-06-04T00:40:04;8.35;;;4.95;;
63801;SDS011;49949;43.060;25.624;2023-06-04T00:42:30;7.38;;;5.25;;
63801;SDS011;49949;43.060;25.624;2023-06-04T00:44:56;10.98;;;4.88;;
63801;SDS011;49949;43.060;25.624;2023-06-04T00:47:23;8.30;;;4.70;;
63801;SDS011;49949;43.060;25.624;2023-06-04T00:49:49;5.03;;;4.53;;
63801;SDS011;49949;43.060;25.624;2023-06-04T00:52:15;8.52;;;4.90;;
63801;SDS011;49949;43.060;25.624;2023-06-04T00:54:41;8.55;;;5.45;;
63801;SDS011;49949;43.060;25.624;2023-06-04T00:57:07;7.93;;;4.80;;
63801;SDS011;49949;43.060;25.624;2023-06-04T00:59:34;8.60;;;5.15;;
63801;SDS011;49949;43.060;25.624;2023-06-04T01:07:15;6.63;;;4.80;;
63801;SDS011;49949;43.060;25.624;2023-06-04T01:09:43;6.78;;;5.45;;
63801;SDS011;49949;43.060;25.624;2023-06-04T01:12:10;9.57;;;5.03;;
63801;SDS011;49949;43.060;25.624;2023-06-04T01:14:36;5.78;;;4.57;;
63801;SDS011;49949;43.060;25.624;2023-06-04T01:20:05;4.30;;;3.53;;
63801;SDS011;49949;43.060;25.624;2023-06-04T01:25:25;9.57;;;3.47;;
63801;SDS011;49949;43.060;25.624;2023-06-04T01:27:57;4.68;;;3.70;;
63801;SDS011;49949;43.060;25.624;2023-06-04T01:30:24;8.85;;;3.45;;
63801;SDS011;49949;43.060;25.624;2023-06-04T01:32:55;3.92;;;3.38;;
63801;SDS011;49949;43.060;25.624;2023-06-04T01:35:21;4.65;;;3.20;;
63801;SDS011;49949;43.060;25.624;2023-06-04T01:37:48;4.80;;;2.95;;
63801;SDS011;49949;43.060;25.624;2023-06-04T01:40:14;7.72;;;3.38;;
63801;SDS011;49949;43.060;25.624;2023-06-04T01:42:41;7.22;;;3.20;;
63801;SDS011;49949;43.060;25.624;2023-06-04T01:45:07;5.78;;;3.40;;
63801;SDS011;49949;43.060;25.624;2023-06-04T01:47:34;4.28;;;3.55;;
63801;SDS011;49949;43.060;25.624;2023-06-04T01:50:00;9.05;;;3.67;;
63801;SDS011;49949;43.060;25.624;2023-06-04T01:52:26;12.32;;;3.80;;
63801;SDS011;49949;43.060;25.624;2023-06-04T01:54:52;11.43;;;5.88;;
63801;SDS011;49949;43.060;25.624;2023-06-04T01:57:19;8.52;;;4.25;;
63801;SDS011;49949;43.060;25.624;2023-06-04T01:59:46;12.30;;;4.78;;
63801;SDS011;49949;43.060;25.624;2023-06-04T02:02:12;6.93;;;3.55;;
63801;SDS011;49949;43.060;25.624;2023-06-04T02:04:38;7.82;;;3.20;;
63801;SDS011;49949;43.060;25.624;2023-06-04T02:07:07;7.80;;;3.30;;
63801;SDS011;49949;43.060;25.624;2023-06-04T02:09:34;6.10;;;3.60;;
63801;SDS011;49949;43.060;25.624;2023-06-04T02:12:01;6.97;;;4.30;;
63801;SDS011;49949;43.060;25.624;2023-06-04T02:14:27;9.68;;;3.33;;
63801;SDS011;49949;43.060;25.624;2023-06-04T02:16:53;4.88;;;2.90;;
63801;SDS011;49949;43.060;25.624;2023-06-04T02:19:23;7.57;;;2.90;;
63801;SDS011;49949;43.060;25.624;2023-06-04T02:21:51;7.95;;;2.58;;
63801;SDS011;49949;43.060;25.624;2023-06-04T02:24:17;5.15;;;2.47;;
63801;SDS011;49949;43.060;25.624;2023-06-04T02:26:43;8.13;;;2.63;;
63801;SDS011;49949;43.060;25.624;2023-06-04T02:29:08;7.82;;;2.55;;
63801;SDS011;49949;43.060;25.624;2023-06-04T02:31:34;8.80;;;2.53;;
63801;SDS011;49949;43.060;25.624;2023-06-04T02:34:00;5.93;;;2.60;;
63801;SDS011;49949;43.060;25.624;2023-06-04T02:36:25;6.50;;;2.60;;
63801;SDS011;49949;43.060;25.624;2023-06-04T02:38:51;6.75;;;2.05;;
63801;SDS011;49949;43.060;25.624;2023-06-04T02:41:17;9.95;;;2.40;;
63801;SDS011;49949;43.060;25.624;2023-06-04T02:43:43;5.78;;;1.80;;
63801;SDS011;49949;43.060;25.624;2023-06-04T02:46:09;10.55;;;2.25;;
63801;SDS011;49949;43.060;25.624;2023-06-04T02:48:35;5.38;;;2.00;;
63801;SDS011;49949;43.060;25.624;2023-06-04T02:51:00;6.03;;;2.28;;
63801;SDS011;49949;43.060;25.624;2023-06-04T02:53:26;7.90;;;1.98;;
63801;SDS011;49949;43.060;25.624;2023-06-04T02:55:52;8.38;;;2.10;;
63801;SDS011;49949;43.060;25.624;2023-06-04T02:58:18;3.25;;;2.35;;
63801;SDS011;49949;43.060;25.624;2023-06-04T03:00:44;13.80;;;2.70;;
63801;SDS011;49949;43.060;25.624;2023-06-04T03:03:10;12.60;;;2.50;;
63801;SDS011;49949;43.060;25.624;2023-06-04T03:05:35;6.07;;;1.90;;
63801;SDS011;49949;43.060;25.624;2023-06-04T03:08:04;6.32;;;2.50;;
63801;SDS011;49949;43.060;25.624;2023-06-04T03:10:31;6.72;;;2.28;;
63801;SDS011;49949;43.060;25.624;2023-06-04T03:12:57;14.30;;;2.78;;
63801;SDS011;49949;43.060;25.624;2023-06-04T03:15:22;6.43;;;3.15;;
63801;SDS011;49949;43.060;25.624;2023-06-04T03:17:48;5.88;;;2.45;;
63801;SDS011;49949;43.060;25.624;2023-06-04T03:20:16;7.70;;;2.45;;
63801;SDS011;49949;43.060;25.624;2023-06-04T03:22:42;11.32;;;4.68;;
63801;SDS011;49949;43.060;25.624;2023-06-04T03:25:07;9.45;;;3.33;;
63801;SDS011;49949;43.060;25.624;2023-06-04T03:27:34;6.82;;;2.20;;
63801;SDS011;49949;43.060;25.624;2023-06-04T03:30:00;3.20;;;1.85;;
63801;SDS011;49949;43.060;25.624;2023-06-04T03:32:27;6.00;;;2.05;;
63801;SDS011;49949;43.060;25.624;2023-06-04T03:34:52;7.68;;;2.17;;
63801;SDS011;49949;43.060;25.624;2023-06-04T03:37:18;2.17;;;2.00;;
63801;SDS011;49949;43.060;25.624;2023-06-04T03:39:44;11.82;;;5.68;;
63801;SDS011;49949;43.060;25.624;2023-06-04T03:42:09;8.60;;;2.95;;
63801;SDS011;49949;43.060;25.624;2023-06-04T03:44:35;17.65;;;3.30;;
63801;SDS011;49949;43.060;25.624;2023-06-04T03:47:01;5.30;;;2.17;;
63801;SDS011;49949;43.060;25.624;2023-06-04T03:49:27;5.65;;;2.10;;
63801;SDS011;49949;43.060;25.624;2023-06-04T03:51:52;7.85;;;2.13;;
63801;SDS011;49949;43.060;25.624;2023-06-04T03:54:18;11.35;;;2.20;;
63801;SDS011;49949;43.060;25.624;2023-06-04T03:56:46;5.80;;;2.35;;
63801;SDS011;49949;43.060;25.624;2023-06-04T03:59:12;4.97;;;2.10;;
63801;SDS011;49949;43.060;25.624;2023-06-04T04:01:38;9.20;;;2.10;;
63801;SDS011;49949;43.060;25.624;2023-06-04T04:04:04;8.55;;;1.98;;
63801;SDS011;49949;43.060;25.624;2023-06-04T04:06:30;4.85;;;2.20;;
63801;SDS011;49949;43.060;25.624;2023-06-04T04:08:56;12.80;;;2.40;;
63801;SDS011;49949;43.060;25.624;2023-06-04T04:11:23;6.30;;;2.33;;
63801;SDS011;49949;43.060;25.624;2023-06-04T04:13:50;3.97;;;2.35;;
63801;SDS011;49949;43.060;25.624;2023-06-04T04:16:16;11.68;;;3.08;;
63801;SDS011;49949;43.060;25.624;2023-06-04T04:18:42;10.43;;;2.60;;
63801;SDS011;49949;43.060;25.624;2023-06-04T04:21:09;8.98;;;2.70;;
63801;SDS011;49949;43.060;25.624;2023-06-04T04:23:37;9.80;;;2.13;;
63801;SDS011;49949;43.060;25.624;2023-06-04T04:26:07;4.28;;;2.05;;
63801;SDS011;49949;43.060;25.624;2023-06-04T04:28:35;6.35;;;2.35;;
63801;SDS011;49949;43.060;25.624;2023-06-04T04:31:00;12.55;;;2.42;;
63801;SDS011;49949;43.060;25.624;2023-06-04T04:33:27;11.25;;;1.98;;
63801;SDS011;49949;43.060;25.624;2023-06-04T04:36:04;7.18;;;2.50;;
63801;SDS011;49949;43.060;25.624;2023-06-04T04:38:33;3.63;;;1.92;;
63801;SDS011;49949;43.060;25.624;2023-06-04T04:41:00;11.00;;;2.47;;
63801;SDS011;49949;43.060;25.624;2023-06-04T04:43:29;9.50;;;3.40;;
63801;SDS011;49949;43.060;25.624;2023-06-04T04:45:56;14.15;;;2.10;;
63801;SDS011;49949;43.060;25.624;2023-06-04T04:48:22;3.30;;;2.30;;
63801;SDS011;49949;43.060;25.624;2023-06-04T04:50:47;9.23;;;2.60;;
63801;SDS011;49949;43.060;25.624;2023-06-04T04:53:13;6.80;;;2.42;;
63801;SDS011;49949;43.060;25.624;2023-06-04T04:55:39;6.47;;;2.30;;
63801;SDS011;49949;43.060;25.624;2023-06-04T04:58:04;11.75;;;2.40;;
63801;SDS011;49949;43.060;25.624;2023-06-04T05:00:30;5.63;;;2.63;;
63801;SDS011;49949;43.060;25.624;2023-06-04T05:02:56;8.82;;;2.05;;
63801;SDS011;49949;43.060;25.624;2023-06-04T05:05:21;7.68;;;2.85;;
63801;SDS011;49949;43.060;25.624;2023-06-04T05:07:48;9.95;;;1.98;;
63801;SDS011;49949;43.060;25.624;2023-06-04T05:10:13;8.95;;;2.60;;
63801;SDS011;49949;43.060;25.624;2023-06-04T05:12:39;9.57;;;2.30;;
63801;SDS011;49949;43.060;25.624;2023-06-04T05:15:15;4.20;;;2.50;;
63801;SDS011;49949;43.060;25.624;2023-06-04T05:17:42;6.85;;;2.38;;
63801;SDS011;49949;43.060;25.624;2023-06-04T05:20:08;19.25;;;2.65;;
63801;SDS011;49949;43.060;25.624;2023-06-04T05:22:34;9.63;;;3.00;;
63801;SDS011;49949;43.060;25.624;2023-06-04T05:25:01;8.98;;;2.33;;
63801;SDS011;49949;43.060;25.624;2023-06-04T05:27:26;4.55;;;2.70;;
63801;SDS011;49949;43.060;25.624;2023-06-04T05:29:53;11.27;;;2.88;;
63801;SDS011;49949;43.060;25.624;2023-06-04T05:32:18;12.02;;;2.70;;
63801;SDS011;49949;43.060;25.624;2023-06-04T05:34:46;5.38;;;2.55;;
63801;SDS011;49949;43.060;25.624;2023-06-04T05:37:12;10.88;;;2.88;;
63801;SDS011;49949;43.060;25.624;2023-06-04T05:39:37;4.90;;;2.40;;
63801;SDS011;49949;43.060;25.624;2023-06-04T05:42:03;7.32;;;2.42;;
63801;SDS011;49949;43.060;25.624;2023-06-04T05:44:31;8.55;;;2.50;;
63801;SDS011;49949;43.060;25.624;2023-06-04T05:46:59;3.63;;;2.70;;
63801;SDS011;49949;43.060;25.624;2023-06-04T05:49:25;6.95;;;2.60;;
63801;SDS011;49949;43.060;25.624;2023-06-04T05:51:51;6.43;;;2.20;;
63801;SDS011;49949;43.060;25.624;2023-06-04T05:54:17;2.92;;;2.15;;
63801;SDS011;49949;43.060;25.624;2023-06-04T05:56:43;5.72;;;2.60;;
63801;SDS011;49949;43.060;25.624;2023-06-04T05:59:08;5.93;;;2.50;;
63801;SDS011;49949;43.060;25.624;2023-06-04T06:01:34;7.25;;;2.63;;
63801;SDS011;49949;43.060;25.624;2023-06-04T06:04:00;5.53;;;2.80;;
63801;SDS011;49949;43.060;25.624;2023-06-04T06:06:25;3.88;;;2.33;;
63801;SDS011;49949;43.060;25.624;2023-06-04T06:08:51;6.40;;;2.70;;
63801;SDS011;49949;43.060;25.624;2023-06-04T06:11:20;9.07;;;2.58;;
63801;SDS011;49949;43.060;25.624;2023-06-04T06:13:46;9.02;;;2.60;;
63801;SDS011;49949;43.060;25.624;2023-06-04T06:16:12;5.47;;;2.95;;
63801;SDS011;49949;43.060;25.624;2023-06-04T06:18:38;8.18;;;2.55;;
63801;SDS011;49949;43.060;25.624;2023-06-04T06:21:03;20.65;;;3.13;;
63801;SDS011;49949;43.060;25.624;2023-06-04T06:23:29;20.17;;;3.40;;
63801;SDS011;49949;43.060;25.624;2023-06-04T06:25:55;10.13;;;2.42;;
63801;SDS011;49949;43.060;25.624;2023-06-04T06:28:20;11.85;;;2.63;;
63801;SDS011;49949;43.060;25.624;2023-06-04T06:30:47;15.80;;;3.25;;
63801;SDS011;49949;43.060;25.624;2023-06-04T06:33:13;11.18;;;3.63;;
63801;SDS011;49949;43.060;25.624;2023-06-04T06:35:38;14.48;;;3.80;;
63801;SDS011;49949;43.060;25.624;2023-06-04T06:38:04;9.00;;;4.50;;
63801;SDS011;49949;43.060;25.624;2023-06-04T06:40:30;18.80;;;3.92;;
63801;SDS011;49949;43.060;25.624;2023-06-04T06:42:56;6.97;;;2.28;;
63801;SDS011;49949;43.060;25.624;2023-06-04T06:45:21;3.30;;;2.75;;
63801;SDS011;49949;43.060;25.624;2023-06-04T06:47:47;6.47;;;2.60;;
63801;SDS011;49949;43.060;25.624;2023-06-04T06:50:13;13.48;;;3.33;;
63801;SDS011;49949;43.060;25.624;2023-06-04T06:52:39;8.52;;;3.00;;
63801;SDS011;49949;43.060;25.624;2023-06-04T06:55:05;12.73;;;3.17;;
63801;SDS011;49949;43.060;25.624;2023-06-04T06:57:35;3.28;;;2.50;;
63801;SDS011;49949;43.060;25.624;2023-06-04T07:00:00;6.60;;;2.70;;
63801;SDS011;49949;43.060;25.624;2023-06-04T07:02:27;5.22;;;2.35;;
63801;SDS011;49949;43.060;25.624;2023-06-04T07:04:53;8.95;;;2.83;;
63801;SDS011;49949;43.060;25.624;2023-06-04T07:07:19;4.72;;;2.30;;
63801;SDS011;49949;43.060;25.624;2023-06-04T07:09:45;7.80;;;2.35;;
63801;SDS011;49949;43.060;25.624;2023-06-04T07:12:11;5.22;;;2.65;;
63801;SDS011;49949;43.060;25.624;2023-06-04T07:14:36;8.45;;;2.83;;
63801;SDS011;49949;43.060;25.624;2023-06-04T07:17:02;7.50;;;2.63;;
63801;SDS011;49949;43.060;25.624;2023-06-04T07:19:28;9.55;;;2.83;;
63801;SDS011;49949;43.060;25.624;2023-06-04T07:21:54;6.72;;;2.63;;
63801;SDS011;49949;43.060;25.624;2023-06-04T07:24:20;6.47;;;2.70;;
63801;SDS011;49949;43.060;25.624;2023-06-04T07:26:47;8.75;;;2.60;;
63801;SDS011;49949;43.060;25.624;2023-06-04T07:29:12;2.88;;;2.50;;
63801;SDS011;49949;43.060;25.624;2023-06-04T07:31:38;4.22;;;2.80;;
63801;SDS011;49949;43.060;25.624;2023-06-04T07:34:04;6.93;;;2.75;;
63801;SDS011;49949;43.060;25.624;2023-06-04T07:36:30;3.88;;;2.40;;
63801;SDS011;49949;43.060;25.624;2023-06-04T07:38:56;2.83;;;2.30;;
63801;SDS011;49949;43.060;25.624;2023-06-04T07:41:22;5.72;;;2.55;;
63801;SDS011;49949;43.060;25.624;2023-06-04T07:43:47;4.00;;;2.28;;
63801;SDS011;49949;43.060;25.624;2023-06-04T07:46:13;4.32;;;2.00;;
63801;SDS011;49949;43.060;25.624;2023-06-04T07:48:43;4.45;;;2.30;;
63801;SDS011;49949;43.060;25.624;2023-06-04T07:51:09;6.97;;;2.60;;
63801;SDS011;49949;43.060;25.624;2023-06-04T07:53:36;4.78;;;2.42;;
63801;SDS011;49949;43.060;25.624;2023-06-04T07:56:05;4.68;;;2.38;;
63801;SDS011;49949;43.060;25.624;2023-06-04T07:58:31;5.53;;;2.53;;
63801;SDS011;49949;43.060;25.624;2023-06-04T08:00:58;3.25;;;1.98;;
63801;SDS011;49949;43.060;25.624;2023-06-04T08:03:24;5.68;;;2.22;;
63801;SDS011;49949;43.060;25.624;2023-06-04T08:05:53;7.93;;;2.38;;
63801;SDS011;49949;43.060;25.624;2023-06-04T08:08:19;8.77;;;2.78;;
63801;SDS011;49949;43.060;25.624;2023-06-04T08:10:45;7.15;;;2.70;;
63801;SDS011;49949;43.060;25.624;2023-06-04T08:13:11;3.22;;;2.17;;
63801;SDS011;49949;43.060;25.624;2023-06-04T08:15:36;3.35;;;2.20;;
63801;SDS011;49949;43.060;25.624;2023-06-04T08:18:02;5.93;;;2.30;;
63801;SDS011;49949;43.060;25.624;2023-06-04T08:20:28;9.77;;;3.00;;
63801;SDS011;49949;43.060;25.624;2023-06-04T08:22:53;6.00;;;2.47;;
63801;SDS011;49949;43.060;25.624;2023-06-04T08:25:22;8.25;;;2.47;;
63801;SDS011;49949;43.060;25.624;2023-06-04T08:27:48;2.38;;;1.98;;
63801;SDS011;49949;43.060;25.624;2023-06-04T08:30:13;3.33;;;2.15;;
63801;SDS011;49949;43.060;25.624;2023-06-04T08:32:39;5.90;;;2.53;;
63801;SDS011;49949;43.060;25.624;2023-06-04T08:35:06;3.33;;;2.70;;
63801;SDS011;49949;43.060;25.624;2023-06-04T08:37:32;9.82;;;2.55;;
63801;SDS011;49949;43.060;25.624;2023-06-04T08:39:58;4.13;;;2.30;;
63801;SDS011;49949;43.060;25.624;2023-06-04T08:42:30;3.97;;;2.80;;
63801;SDS011;49949;43.060;25.624;2023-06-04T08:44:59;3.65;;;2.33;;
63801;SDS011;49949;43.060;25.624;2023-06-04T08:47:25;5.93;;;2.55;;
63801;SDS011;49949;43.060;25.624;2023-06-04T08:49:57;7.05;;;2.88;;
63801;SDS011;49949;43.060;25.624;2023-06-04T08:52:25;14.27;;;2.42;;
63801;SDS011;49949;43.060;25.624;2023-06-04T08:54:52;5.78;;;2.50;;
63801;SDS011;49949;43.060;25.624;2023-06-04T08:57:19;3.05;;;2.35;;
63801;SDS011;49949;43.060;25.624;2023-06-04T08:59:46;7.70;;;2.72;;
63801;SDS011;49949;43.060;25.624;2023-06-04T09:02:15;4.57;;;2.15;;
63801;SDS011;49949;43.060;25.624;2023-06-04T09:04:41;4.57;;;2.58;;
63801;SDS011;49949;43.060;25.624;2023-06-04T09:07:08;5.35;;;2.15;;
63801;SDS011;49949;43.060;25.624;2023-06-04T09:09:40;4.00;;;2.40;;
63801;SDS011;49949;43.060;25.624;2023-06-04T09:12:10;5.65;;;2.20;;
63801;SDS011;49949;43.060;25.624;2023-06-04T09:14:40;5.22;;;2.80;;
63801;SDS011;49949;43.060;25.624;2023-06-04T09:17:05;7.07;;;2.72;;
63801;SDS011;49949;43.060;25.624;2023-06-04T09:19:31;6.63;;;2.30;;
63801;SDS011;49949;43.060;25.624;2023-06-04T09:21:57;2.95;;;2.40;;
63801;SDS011;49949;43.060;25.624;2023-06-04T09:24:24;3.25;;;2.58;;
63801;SDS011;49949;43.060;25.624;2023-06-04T09:27:09;5.78;;;2.45;;
63801;SDS011;49949;43.060;25.624;2023-06-04T09:29:49;8.20;;;3.58;;
63801;SDS011;49949;43.060;25.624;2023-06-04T09:34:52;5.05;;;2.35;;
63801;SDS011;49949;43.060;25.624;2023-06-04T09:37:20;6.30;;;2.38;;
63801;SDS011;49949;43.060;25.624;2023-06-04T09:39:52;11.50;;;2.50;;
63801;SDS011;49949;43.060;25.624;2023-06-04T09:42:20;3.53;;;2.25;;
63801;SDS011;49949;43.060;25.624;2023-06-04T09:44:47;7.82;;;2.33;;
63801;SDS011;49949;43.060;25.624;2023-06-04T09:47:13;7.82;;;2.30;;
63801;SDS011;49949;43.060;25.624;2023-06-04T09:49:45;7.00;;;1.92;;
63801;SDS011;49949;43.060;25.624;2023-06-04T09:52:12;6.28;;;2.13;;
63801;SDS011;49949;43.060;25.624;2023-06-04T09:54:41;3.38;;;2.35;;
63801;SDS011;49949;43.060;25.624;2023-06-04T09:57:13;6.00;;;2.33;;
63801;SDS011;49949;43.060;25.624;2023-06-04T09:59:41;4.28;;;2.10;;
63801;SDS011;49949;43.060;25.624;2023-06-04T10:02:09;7.60;;;2.30;;
63801;SDS011;49949;43.060;25.624;2023-06-04T10:04:37;6.75;;;2.42;;
63801;SDS011;49949;43.060;25.624;2023-06-04T10:07:08;3.95;;;2.20;;
63801;SDS011;49949;43.060;25.624;2023-06-04T10:09:37;8.27;;;2.30;;
63801;SDS011;49949;43.060;25.624;2023-06-04T10:12:10;2.92;;;1.88;;
63801;SDS011;49949;43.060;25.624;2023-06-04T10:15:02;4.32;;;1.98;;
63801;SDS011;49949;43.060;25.624;2023-06-04T10:17:28;3.22;;;2.35;;
63801;SDS011;49949;43.060;25.624;2023-06-04T10:19:56;2.47;;;2.10;;
63801;SDS011;49949;43.060;25.624;2023-06-04T10:22:24;7.22;;;2.60;;
63801;SDS011;49949;43.060;25.624;2023-06-04T10:24:51;5.60;;;2.60;;
63801;SDS011;49949;43.060;25.624;2023-06-04T10:27:17;3.45;;;2.10;;
63801;SDS011;49949;43.060;25.624;2023-06-04T10:29:44;3.78;;;3.47;;
63801;SDS011;49949;43.060;25.624;2023-06-04T10:32:11;9.82;;;2.38;;
63801;SDS011;49949;43.060;25.624;2023-06-04T10:34:37;1.08;;;0.90;;
63801;SDS011;49949;43.060;25.624;2023-06-04T10:37:02;4.72;;;2.10;;
63801;SDS011;49949;43.060;25.624;2023-06-04T10:39:29;3.63;;;1.90;;
63801;SDS011;49949;43.060;25.624;2023-06-04T10:42:02;5.03;;;3.13;;
63801;SDS011;49949;43.060;25.624;2023-06-04T10:44:30;1.98;;;1.77;;
63801;SDS011;49949;43.060;25.624;2023-06-04T10:46:57;4.15;;;2.20;;
63801;SDS011;49949;43.060;25.624;2023-06-04T10:49:27;3.90;;;2.13;;
63801;SDS011;49949;43.060;25.624;2023-06-04T10:51:53;5.60;;;2.28;;
63801;SDS011;49949;43.060;25.624;2023-06-04T10:54:28;4.65;;;2.03;;
63801;SDS011;49949;43.060;25.624;2023-06-04T10:56:53;5.28;;;2.28;;
63801;SDS011;49949;43.060;25.624;2023-06-04T10:59:20;4.93;;;1.98;;
63801;SDS011;49949;43.060;25.624;2023-06-04T11:02:02;2.45;;;1.92;;
63801;SDS011;49949;43.060;25.624;2023-06-04T11:04:33;1.65;;;1.48;;
63801;SDS011;49949;43.060;25.624;2023-06-04T11:07:03;5.80;;;2.05;;
63801;SDS011;49949;43.060;25.624;2023-06-04T11:09:34;2.30;;;1.98;;
63801;SDS011;49949;43.060;25.624;2023-06-04T11:12:00;5.95;;;2.00;;
63801;SDS011;49949;43.060;25.624;2023-06-04T11:14:27;3.97;;;1.90;;
63801;SDS011;49949;43.060;25.624;2023-06-04T11:16:53;3.55;;;1.88;;
63801;SDS011;49949;43.060;25.624;2023-06-04T11:19:19;3.17;;;1.73;;
63801;SDS011;49949;43.060;25.624;2023-06-04T11:21:45;4.13;;;1.92;;
63801;SDS011;49949;43.060;25.624;2023-06-04T11:24:14;5.32;;;1.83;;
63801;SDS011;49949;43.060;25.624;2023-06-04T11:26:39;5.13;;;1.80;;
63801;SDS011;49949;43.060;25.624;2023-06-04T11:29:06;6.55;;;2.42;;
63801;SDS011;49949;43.060;25.624;2023-06-04T11:31:45;1.70;;;1.58;;
63801;SDS011;49949;43.060;25.624;2023-06-04T11:36:49;2.42;;;1.73;;
63801;SDS011;49949;43.060;25.624;2023-06-04T11:39:18;3.63;;;2.00;;
63801;SDS011;49949;43.060;25.624;2023-06-04T11:41:44;2.45;;;1.83;;
63801;SDS011;49949;43.060;25.624;2023-06-04T11:44:11;6.70;;;2.03;;
63801;SDS011;49949;43.060;25.624;2023-06-04T11:46:41;2.30;;;1.88;;
63801;SDS011;49949;43.060;25.624;2023-06-04T11:49:17;6.53;;;2.30;;
63801;SDS011;49949;43.060;25.624;2023-06-04T11:51:47;5.32;;;2.25;;
63801;SDS011;49949;43.060;25.624;2023-06-04T11:54:13;2.55;;;2.22;;
63801;SDS011;49949;43.060;25.624;2023-06-04T11:56:41;2.88;;;2.10;;
63801;SDS011;49949;43.060;25.624;2023-06-04T11:59:12;4.47;;;1.80;;
63801;SDS011;49949;43.060;25.624;2023-06-04T12:01:42;2.70;;;2.17;;
63801;SDS011;49949;43.060;25.624;2023-06-04T12:04:12;1.55;;;1.45;;
63801;SDS011;49949;43.060;25.624;2023-06-04T12:06:38;3.70;;;1.83;;
63801;SDS011;49949;43.060;25.624;2023-06-04T12:09:20;3.33;;;2.30;;
63801;SDS011;49949;43.060;25.624;2023-06-04T12:11:47;2.35;;;2.15;;
63801;SDS011;49949;43.060;25.624;2023-06-04T12:14:15;3.40;;;1.80;;
63801;SDS011;49949;43.060;25.624;2023-06-04T12:16:58;4.43;;;1.85;;
63801;SDS011;49949;43.060;25.624;2023-06-04T12:19:25;2.67;;;2.08;;
63801;SDS011;49949;43.060;25.624;2023-06-04T12:22:02;6.50;;;2.17;;
63801;SDS011;49949;43.060;25.624;2023-06-04T12:24:29;3.03;;;1.58;;
63801;SDS011;49949;43.060;25.624;2023-06-04T12:27:04;5.28;;;2.30;;
63801;SDS011;49949;43.060;25.624;2023-06-04T12:29:31;3.30;;;2.05;;
63801;SDS011;49949;43.060;25.624;2023-06-04T12:32:01;5.35;;;1.73;;
63801;SDS011;49949;43.060;25.624;2023-06-04T12:34:36;1.80;;;1.33;;
63801;SDS011;49949;43.060;25.624;2023-06-04T12:37:05;3.50;;;2.00;;
63801;SDS011;49949;43.060;25.624;2023-06-04T12:39:35;2.20;;;2.10;;
63801;SDS011;49949;43.060;25.624;2023-06-04T12:42:05;2.55;;;1.70;;
63801;SDS011;49949;43.060;25.624;2023-06-04T12:44:31;3.90;;;1.88;;
63801;SDS011;49949;43.060;25.624;2023-06-04T12:46:57;2.55;;;1.92;;
63801;SDS011;49949;43.060;25.624;2023-06-04T12:49:23;3.60;;;2.13;;
63801;SDS011;49949;43.060;25.624;2023-06-04T12:51:49;12.35;;;2.20;;
63801;SDS011;49949;43.060;25.624;2023-06-04T12:54:15;6.90;;;2.10;;
63801;SDS011;49949;43.060;25.624;2023-06-04T12:56:41;2.33;;;2.10;;
63801;SDS011;49949;43.060;25.624;2023-06-04T12:59:08;2.42;;;1.98;;
63801;SDS011;49949;43.060;25.624;2023-06-04T13:01:34;3.35;;;2.47;;
63801;SDS011;49949;43.060;25.624;2023-06-04T13:03:59;3.97;;;2.30;;
63801;SDS011;49949;43.060;25.624;2023-06-04T13:06:25;6.85;;;2.08;;
63801;SDS011;49949;43.060;25.624;2023-06-04T13:08:51;3.72;;;1.90;;
63801;SDS011;49949;43.060;25.624;2023-06-04T13:11:17;4.38;;;2.85;;
63801;SDS011;49949;43.060;25.624;2023-06-04T13:13:43;4.10;;;1.92;;
63801;SDS011;49949;43.060;25.624;2023-06-04T13:16:09;4.95;;;2.30;;
63801;SDS011;49949;43.060;25.624;2023-06-04T13:18:35;2.78;;;1.65;;
63801;SDS011;49949;43.060;25.624;2023-06-04T13:21:00;2.30;;;2.00;;
63801;SDS011;49949;43.060;25.624;2023-06-04T13:23:27;3.85;;;1.80;;
63801;SDS011;49949;43.060;25.624;2023-06-04T13:25:53;3.22;;;1.98;;
63801;SDS011;49949;43.060;25.624;2023-06-04T13:28:19;4.95;;;1.98;;
63801;SDS011;49949;43.060;25.624;2023-06-04T13:30:45;2.47;;;2.15;;
63801;SDS011;49949;43.060;25.624;2023-06-04T13:33:11;2.75;;;1.73;;
63801;SDS011;49949;43.060;25.624;2023-06-04T13:35:37;4.30;;;2.17;;
63801;SDS011;49949;43.060;25.624;2023-06-04T13:38:04;4.68;;;2.20;;
63801;SDS011;49949;43.060;25.624;2023-06-04T13:40:36;2.75;;;1.00;;
63801;SDS011;49949;43.060;25.624;2023-06-04T13:43:02;5.35;;;2.10;;
63801;SDS011;49949;43.060;25.624;2023-06-04T13:45:27;4.70;;;1.95;;
63801;SDS011;49949;43.060;25.624;2023-06-04T13:47:53;4.53;;;1.75;;
63801;SDS011;49949;43.060;25.624;2023-06-04T13:50:19;3.58;;;1.83;;
63801;SDS011;49949;43.060;25.624;2023-06-04T13:52:44;2.22;;;2.03;;
63801;SDS011;49949;43.060;25.624;2023-06-04T13:55:11;15.98;;;3.10;;
63801;SDS011;49949;43.060;25.624;2023-06-04T13:57:38;3.38;;;2.00;;
63801;SDS011;49949;43.060;25.624;2023-06-04T14:00:04;5.07;;;2.70;;
63801;SDS011;49949;43.060;25.624;2023-06-04T14:02:31;2.75;;;2.30;;
63801;SDS011;49949;43.060;25.624;2023-06-04T14:04:57;7.65;;;1.88;;
63801;SDS011;49949;43.060;25.624;2023-06-04T14:07:23;2.90;;;1.85;;
63801;SDS011;49949;43.060;25.624;2023-06-04T14:09:48;4.28;;;1.95;;
63801;SDS011;49949;43.060;25.624;2023-06-04T14:12:19;3.05;;;2.10;;
63801;SDS011;49949;43.060;25.624;2023-06-04T14:14:48;4.82;;;2.00;;
63801;SDS011;49949;43.060;25.624;2023-06-04T14:17:14;2.15;;;2.03;;
63801;SDS011;49949;43.060;25.624;2023-06-04T14:19:40;4.00;;;1.88;;
63801;SDS011;49949;43.060;25.624;2023-06-04T14:22:06;3.38;;;1.98;;
63801;SDS011;49949;43.060;25.624;2023-06-04T14:24:32;3.42;;;2.22;;
63801;SDS011;49949;43.060;25.624;2023-06-04T14:26:59;6.07;;;2.45;;
63801;SDS011;49949;43.060;25.624;2023-06-04T14:29:25;5.90;;;2.50;;
63801;SDS011;49949;43.060;25.624;2023-06-04T14:31:50;3.65;;;2.40;;
63801;SDS011;49949;43.060;25.624;2023-06-04T14:34:16;2.33;;;1.98;;
63801;SDS011;49949;43.060;25.624;2023-06-04T14:36:42;6.78;;;2.30;;
63801;SDS011;49949;43.060;25.624;2023-06-04T14:39:07;4.65;;;1.98;;
63801;SDS011;49949;43.060;25.624;2023-06-04T14:41:33;5.22;;;2.17;;
63801;SDS011;49949;43.060;25.624;2023-06-04T14:43:59;37.78;;;4.32;;
63801;SDS011;49949;43.060;25.624;2023-06-04T14:46:25;2.45;;;1.90;;
63801;SDS011;49949;43.060;25.624;2023-06-04T14:48:51;6.85;;;2.40;;